sensor_id;sensor_type;location;lat;lon;timestamp;pressure;altitude;pressure_sealevel;temperature;humidity
22550;BME280;11441;57.164;-2.120;2023-07-16T00:01:00;98073.03;;;13.53;100.00
22550;BME280;11441;57.164;-2.120;2023-07-16T00:03:27;98060.81;;;13.37;100.00
22550;BME280;11441;57.164;-2.120;2023-07-16T00:05:54;98065.69;;;13.33;100.00
22550;BME280;11441;57.164;-2.120;2023-07-16T00:08:22;98066.72;;;13.52;100.00
22550;BME280;11441;57.164;-2.120;2023-07-16T00:10:48;98061.38;;;13.32;100.00
22550;BME280;11441;57.164;-2.120;2023-07-16T00:13:15;98054.22;;;13.18;100.00
22550;BME280;11441;57.164;-2.120;2023-07-16T00:15:42;98060.16;;;13.33;100.00
22550;BME280;11441;57.164;-2.120;2023-07-16T00:18:09;98059.41;;;13.46;100.00
22550;BME280;11441;57.164;-2.120;2023-07-16T00:20:36;98063.41;;;13.45;100.00
22550;BME280;11441;57.164;-2.120;2023-07-16T00:23:03;98071.88;;;13.37;100.00
22550;BME280;11441;57.164;-2.120;2023-07-16T00:25:30;98071.22;;;13.33;100.00
22550;BME280;11441;57.164;-2.120;2023-07-16T00:27:57;98070.09;;;13.31;100.00
22550;BME280;11441;57.164;-2.120;2023-07-16T00:30:24;98068.84;;;13.48;100.00
22550;BME280;11441;57.164;-2.120;2023-07-16T00:32:51;98071.88;;;13.37;100.00
22550;BME280;11441;57.164;-2.120;2023-07-16T00:35:18;98075.03;;;13.52;100.00
22550;BME280;11441;57.164;-2.120;2023-07-16T00:37:45;98067.22;;;13.64;100.00
22550;BME280;11441;57.164;-2.120;2023-07-16T00:40:12;98063.75;;;13.47;100.00
22550;BME280;11441;57.164;-2.120;2023-07-16T00:42:38;98073.28;;;13.58;100.00
22550;BME280;11441;57.164;-2.120;2023-07-16T00:45:12;98075.25;;;13.58;100.00
22550;BME280;11441;57.164;-2.120;2023-07-16T00:47:41;98076.59;;;13.53;100.00
22550;BME280;11441;57.164;-2.120;2023-07-16T00:50:10;98076.22;;;13.51;100.00
22550;BME280;11441;57.164;-2.120;2023-07-16T00:52:38;98078.94;;;13.55;100.00
22550;BME280;11441;57.164;-2.120;2023-07-16T00:55:07;98083.22;;;13.56;100.00
22550;BME280;11441;57.164;-2.120;2023-07-16T00:57:35;98084.56;;;13.64;100.00
22550;BME280;11441;57.164;-2.120;2023-07-16T01:00:02;98089.88;;;13.58;100.00
22550;BME280;11441;57.164;-2.120;2023-07-16T01:02:30;98093.22;;;13.66;100.00
22550;BME280;11441;57.164;-2.120;2023-07-16T01:04:57;98095.69;;;13.48;100.00
22550;BME280;11441;57.164;-2.120;2023-07-16T01:07:25;98103.56;;;13.49;100.00
22550;BME280;11441;57.164;-2.120;2023-07-16T01:09:54;98092.81;;;13.22;100.00
22550;BME280;11441;57.164;-2.120;2023-07-16T01:12:22;98082.69;;;13.32;100.00
22550;BME280;11441;57.164;-2.120;2023-07-16T01:14:51;98095.13;;;13.40;100.00
22550;BME280;11441;57.164;-2.120;2023-07-16T01:17:21;98099.16;;;13.52;100.00
22550;BME280;11441;57.164;-2.120;2023-07-16T01:19:48;98108.72;;;13.34;100.00
22550;BME280;11441;57.164;-2.120;2023-07-16T01:25:18;98105.06;;;13.37;100.00
22550;BME280;11441;57.164;-2.120;2023-07-16T01:28:06;98109.72;;;13.41;100.00
22550;BME280;11441;57.164;-2.120;2023-07-16T01:30:37;98105.22;;;13.47;100.00
22550;BME280;11441;57.164;-2.120;2023-07-16T01:33:05;98109.38;;;13.38;100.00
22550;BME280;11441;57.164;-2.120;2023-07-16T01:35:34;98101.09;;;13.38;100.00
22550;BME280;11441;57.164;-2.120;2023-07-16T01:38:01;98117.13;;;13.44;100.00
22550;BME280;11441;57.164;-2.120;2023-07-16T01:40:29;98117.00;;;13.34;100.00
22550;BME280;11441;57.164;-2.120;2023-07-16T01:42:56;98122.09;;;13.36;100.00
22550;BME280;11441;57.164;-2.120;2023-07-16T01:45:23;98116.09;;;13.37;100.00
22550;BME280;11441;57.164;-2.120;2023-07-16T01:48:30;98117.88;;;13.15;100.00
22550;BME280;11441;57.164;-2.120;2023-07-16T01:51:15;98127.84;;;13.25;100.00
22550;BME280;11441;57.164;-2.120;2023-07-16T01:53:42;98127.94;;;13.21;100.00
22550;BME280;11441;57.164;-2.120;2023-07-16T01:56:09;98134.28;;;13.22;100.00
22550;BME280;11441;57.164;-2.120;2023-07-16T01:58:36;98134.38;;;13.18;100.00
22550;BME280;11441;57.164;-2.120;2023-07-16T02:01:03;98144.97;;;13.20;100.00
22550;BME280;11441;57.164;-2.120;2023-07-16T02:03:30;98145.34;;;13.06;100.00
22550;BME280;11441;57.164;-2.120;2023-07-16T02:05:57;98151.19;;;13.08;100.00
22550;BME280;11441;57.164;-2.120;2023-07-16T02:08:43;98148.63;;;13.17;100.00
22550;BME280;11441;57.164;-2.120;2023-07-16T02:11:11;98147.56;;;13.27;100.00
22550;BME280;11441;57.164;-2.120;2023-07-16T02:13:38;98159.81;;;13.26;100.00
22550;BME280;11441;57.164;-2.120;2023-07-16T02:16:05;98165.34;;;13.26;100.00
22550;BME280;11441;57.164;-2.120;2023-07-16T02:18:32;98153.53;;;13.26;100.00
22550;BME280;11441;57.164;-2.120;2023-07-16T02:20:59;98148.59;;;13.33;100.00
22550;BME280;11441;57.164;-2.120;2023-07-16T02:23:26;98162.16;;;13.28;100.00
22550;BME280;11441;57.164;-2.120;2023-07-16T02:25:53;98154.28;;;13.26;100.00
22550;BME280;11441;57.164;-2.120;2023-07-16T02:28:19;98163.25;;;13.30;100.00
22550;BME280;11441;57.164;-2.120;2023-07-16T02:30:48;98156.81;;;13.37;100.00
22550;BME280;11441;57.164;-2.120;2023-07-16T02:33:15;98160.19;;;13.45;100.00
22550;BME280;11441;57.164;-2.120;2023-07-16T02:35:49;98163.47;;;13.39;100.00
22550;BME280;11441;57.164;-2.120;2023-07-16T02:38:16;98171.22;;;13.45;100.00
22550;BME280;11441;57.164;-2.120;2023-07-16T02:41:01;98167.75;;;13.41;100.00
22550;BME280;11441;57.164;-2.120;2023-07-16T02:43:31;98171.28;;;13.57;100.00
22550;BME280;11441;57.164;-2.120;2023-07-16T02:45:58;98170.41;;;13.61;100.00
22550;BME280;11441;57.164;-2.120;2023-07-16T02:48:28;98178.84;;;13.70;100.00
22550;BME280;11441;57.164;-2.120;2023-07-16T02:50:55;98179.97;;;13.72;100.00
22550;BME280;11441;57.164;-2.120;2023-07-16T02:53:21;98175.44;;;13.79;100.00
22550;BME280;11441;57.164;-2.120;2023-07-16T02:55:48;98170.69;;;13.79;100.00
22550;BME280;11441;57.164;-2.120;2023-07-16T02:58:15;98184.72;;;13.72;100.00
22550;BME280;11441;57.164;-2.120;2023-07-16T03:00:42;98178.88;;;13.83;100.00
22550;BME280;11441;57.164;-2.120;2023-07-16T03:03:09;98180.44;;;13.84;100.00
22550;BME280;11441;57.164;-2.120;2023-07-16T03:05:36;98173.06;;;13.64;100.00
22550;BME280;11441;57.164;-2.120;2023-07-16T03:08:03;98175.09;;;13.76;100.00
22550;BME280;11441;57.164;-2.120;2023-07-16T03:10:30;98182.78;;;13.85;100.00
22550;BME280;11441;57.164;-2.120;2023-07-16T03:12:57;98187.81;;;13.74;100.00
22550;BME280;11441;57.164;-2.120;2023-07-16T03:15:24;98190.72;;;13.54;100.00
22550;BME280;11441;57.164;-2.120;2023-07-16T03:17:51;98192.28;;;13.55;100.00
22550;BME280;11441;57.164;-2.120;2023-07-16T03:20:19;98189.97;;;13.37;100.00
22550;BME280;11441;57.164;-2.120;2023-07-16T03:22:46;98183.16;;;13.42;100.00
22550;BME280;11441;57.164;-2.120;2023-07-16T03:25:13;98192.88;;;13.63;100.00
22550;BME280;11441;57.164;-2.120;2023-07-16T03:27:40;98192.44;;;13.64;100.00
22550;BME280;11441;57.164;-2.120;2023-07-16T03:30:07;98192.19;;;13.58;100.00
22550;BME280;11441;57.164;-2.120;2023-07-16T03:32:36;98199.69;;;13.58;100.00
22550;BME280;11441;57.164;-2.120;2023-07-16T03:35:19;98197.38;;;13.56;100.00
22550;BME280;11441;57.164;-2.120;2023-07-16T03:37:47;98202.25;;;13.65;100.00
22550;BME280;11441;57.164;-2.120;2023-07-16T03:40:32;98204.94;;;13.69;100.00
22550;BME280;11441;57.164;-2.120;2023-07-16T03:42:59;98204.47;;;13.57;100.00
22550;BME280;11441;57.164;-2.120;2023-07-16T03:45:26;98198.94;;;13.57;100.00
22550;BME280;11441;57.164;-2.120;2023-07-16T03:47:53;98188.41;;;13.52;100.00
22550;BME280;11441;57.164;-2.120;2023-07-16T03:50:20;98204.50;;;13.70;100.00
22550;BME280;11441;57.164;-2.120;2023-07-16T03:52:48;98205.97;;;13.75;100.00
22550;BME280;11441;57.164;-2.120;2023-07-16T03:55:14;98207.34;;;13.83;100.00
22550;BME280;11441;57.164;-2.120;2023-07-16T03:57:42;98208.44;;;13.86;100.00
22550;BME280;11441;57.164;-2.120;2023-07-16T04:00:09;98220.63;;;13.88;100.00
22550;BME280;11441;57.164;-2.120;2023-07-16T04:02:45;98219.06;;;13.87;100.00
22550;BME280;11441;57.164;-2.120;2023-07-16T04:05:16;98216.94;;;13.79;100.00
22550;BME280;11441;57.164;-2.120;2023-07-16T04:07:43;98218.84;;;13.82;100.00
22550;BME280;11441;57.164;-2.120;2023-07-16T04:10:10;98223.59;;;13.81;100.00
22550;BME280;11441;57.164;-2.120;2023-07-16T04:12:37;98231.69;;;13.88;100.00
22550;BME280;11441;57.164;-2.120;2023-07-16T04:15:07;98229.41;;;14.00;100.00
22550;BME280;11441;57.164;-2.120;2023-07-16T04:17:53;98244.19;;;13.93;100.00
22550;BME280;11441;57.164;-2.120;2023-07-16T04:20:20;98239.16;;;13.75;100.00
22550;BME280;11441;57.164;-2.120;2023-07-16T04:22:47;98242.78;;;13.72;100.00
22550;BME280;11441;57.164;-2.120;2023-07-16T04:25:14;98251.19;;;13.68;100.00
22550;BME280;11441;57.164;-2.120;2023-07-16T04:27:41;98248.00;;;13.70;100.00
22550;BME280;11441;57.164;-2.120;2023-07-16T04:30:10;98247.88;;;13.73;100.00
22550;BME280;11441;57.164;-2.120;2023-07-16T04:32:37;98247.56;;;13.71;100.00
22550;BME280;11441;57.164;-2.120;2023-07-16T04:35:04;98247.88;;;13.73;100.00
22550;BME280;11441;57.164;-2.120;2023-07-16T04:37:31;98250.66;;;13.73;100.00
22550;BME280;11441;57.164;-2.120;2023-07-16T04:39:59;98264.28;;;13.81;100.00
22550;BME280;11441;57.164;-2.120;2023-07-16T04:42:26;98263.22;;;13.91;100.00
22550;BME280;11441;57.164;-2.120;2023-07-16T04:44:52;98270.25;;;13.79;100.00
22550;BME280;11441;57.164;-2.120;2023-07-16T04:47:19;98270.25;;;13.79;100.00
22550;BME280;11441;57.164;-2.120;2023-07-16T04:49:46;98265.34;;;13.87;100.00
22550;BME280;11441;57.164;-2.120;2023-07-16T04:52:13;98269.47;;;13.95;100.00
22550;BME280;11441;57.164;-2.120;2023-07-16T04:54:40;98270.16;;;14.12;100.00
22550;BME280;11441;57.164;-2.120;2023-07-16T04:57:07;98273.63;;;14.16;100.00
22550;BME280;11441;57.164;-2.120;2023-07-16T04:59:34;98277.06;;;14.20;100.00
22550;BME280;11441;57.164;-2.120;2023-07-16T05:02:05;98278.88;;;14.27;100.00
22550;BME280;11441;57.164;-2.120;2023-07-16T05:04:36;98291.03;;;14.29;100.00
22550;BME280;11441;57.164;-2.120;2023-07-16T05:07:03;98279.50;;;14.18;100.00
22550;BME280;11441;57.164;-2.120;2023-07-16T05:09:30;98285.75;;;14.35;100.00
22550;BME280;11441;57.164;-2.120;2023-07-16T05:11:57;98294.97;;;14.45;100.00
22550;BME280;11441;57.164;-2.120;2023-07-16T05:14:26;98283.66;;;14.39;100.00
22550;BME280;11441;57.164;-2.120;2023-07-16T05:16:53;98301.28;;;14.45;100.00
22550;BME280;11441;57.164;-2.120;2023-07-16T05:19:21;98306.03;;;14.45;100.00
22550;BME280;11441;57.164;-2.120;2023-07-16T05:21:48;98300.41;;;14.48;100.00
22550;BME280;11441;57.164;-2.120;2023-07-16T05:24:15;98296.31;;;14.53;100.00
22550;BME280;11441;57.164;-2.120;2023-07-16T05:26:41;98300.19;;;14.56;100.00
22550;BME280;11441;57.164;-2.120;2023-07-16T05:29:09;98315.59;;;14.57;100.00
22550;BME280;11441;57.164;-2.120;2023-07-16T05:31:36;98319.50;;;14.59;100.00
22550;BME280;11441;57.164;-2.120;2023-07-16T05:34:03;98321.69;;;14.51;100.00
22550;BME280;11441;57.164;-2.120;2023-07-16T05:36:30;98328.63;;;14.60;100.00
22550;BME280;11441;57.164;-2.120;2023-07-16T05:38:56;98325.31;;;14.65;100.00
22550;BME280;11441;57.164;-2.120;2023-07-16T05:41:23;98331.59;;;14.65;100.00
22550;BME280;11441;57.164;-2.120;2023-07-16T05:43:50;98330.19;;;14.74;100.00
22550;BME280;11441;57.164;-2.120;2023-07-16T05:46:17;98343.94;;;14.77;100.00
22550;BME280;11441;57.164;-2.120;2023-07-16T05:48:44;98339.94;;;14.78;100.00
22550;BME280;11441;57.164;-2.120;2023-07-16T05:51:11;98332.28;;;14.69;100.00
22550;BME280;11441;57.164;-2.120;2023-07-16T05:53:38;98337.16;;;14.78;100.00
22550;BME280;11441;57.164;-2.120;2023-07-16T05:56:05;98327.75;;;14.76;100.00
22550;BME280;11441;57.164;-2.120;2023-07-16T05:58:32;98334.03;;;14.63;100.00
22550;BME280;11441;57.164;-2.120;2023-07-16T06:00:58;98343.25;;;14.73;100.00
22550;BME280;11441;57.164;-2.120;2023-07-16T06:03:25;98340.91;;;14.71;100.00
22550;BME280;11441;57.164;-2.120;2023-07-16T06:05:52;98352.63;;;14.63;100.00
22550;BME280;11441;57.164;-2.120;2023-07-16T06:08:19;98361.41;;;14.61;100.00
22550;BME280;11441;57.164;-2.120;2023-07-16T06:10:46;98361.84;;;14.60;100.00
22550;BME280;11441;57.164;-2.120;2023-07-16T06:13:13;98350.13;;;14.39;100.00
22550;BME280;11441;57.164;-2.120;2023-07-16T06:15:59;98341.47;;;14.37;100.00
22550;BME280;11441;57.164;-2.120;2023-07-16T06:18:25;98358.97;;;14.34;100.00
22550;BME280;11441;57.164;-2.120;2023-07-16T06:20:52;98350.13;;;14.39;100.00
22550;BME280;11441;57.164;-2.120;2023-07-16T06:23:21;98363.53;;;14.41;100.00
22550;BME280;11441;57.164;-2.120;2023-07-16T06:25:53;98346.06;;;14.57;100.00
22550;BME280;11441;57.164;-2.120;2023-07-16T06:28:20;98353.13;;;14.45;100.00
22550;BME280;11441;57.164;-2.120;2023-07-16T06:30:47;98356.47;;;14.52;100.00
22550;BME280;11441;57.164;-2.120;2023-07-16T06:33:14;98345.94;;;14.47;100.00
22550;BME280;11441;57.164;-2.120;2023-07-16T06:35:47;98353.78;;;14.65;100.00
22550;BME280;11441;57.164;-2.120;2023-07-16T06:38:14;98360.66;;;14.74;100.00
22550;BME280;11441;57.164;-2.120;2023-07-16T06:40:48;98359.66;;;14.80;100.00
22550;BME280;11441;57.164;-2.120;2023-07-16T06:43:16;98362.69;;;14.99;100.00
22550;BME280;11441;57.164;-2.120;2023-07-16T06:45:43;98365.56;;;15.08;100.00
22550;BME280;11441;57.164;-2.120;2023-07-16T06:48:10;98370.56;;;15.13;100.00
22550;BME280;11441;57.164;-2.120;2023-07-16T06:50:37;98365.72;;;15.30;100.00
22550;BME280;11441;57.164;-2.120;2023-07-16T06:53:04;98368.72;;;15.23;100.00
22550;BME280;11441;57.164;-2.120;2023-07-16T06:55:31;98373.25;;;15.30;100.00
22550;BME280;11441;57.164;-2.120;2023-07-16T06:58:00;98368.47;;;15.43;100.00
22550;BME280;11441;57.164;-2.120;2023-07-16T07:00:27;98389.34;;;15.35;100.00
22550;BME280;11441;57.164;-2.120;2023-07-16T07:02:54;98390.22;;;15.44;100.00
22550;BME280;11441;57.164;-2.120;2023-07-16T07:05:21;98384.13;;;15.50;100.00
22550;BME280;11441;57.164;-2.120;2023-07-16T07:07:48;98391.00;;;15.58;100.00
22550;BME280;11441;57.164;-2.120;2023-07-16T07:10:15;98387.31;;;15.74;100.00
22550;BME280;11441;57.164;-2.120;2023-07-16T07:12:42;98411.09;;;15.88;100.00
22550;BME280;11441;57.164;-2.120;2023-07-16T07:15:09;98403.19;;;15.99;100.00
22550;BME280;11441;57.164;-2.120;2023-07-16T07:17:36;98423.28;;;16.03;100.00
22550;BME280;11441;57.164;-2.120;2023-07-16T07:20:04;98418.81;;;16.06;100.00
22550;BME280;11441;57.164;-2.120;2023-07-16T07:22:31;98419.56;;;16.19;100.00
22550;BME280;11441;57.164;-2.120;2023-07-16T07:24:58;98421.59;;;16.06;100.00
22550;BME280;11441;57.164;-2.120;2023-07-16T07:27:25;98436.56;;;16.21;100.00
22550;BME280;11441;57.164;-2.120;2023-07-16T07:29:52;98448.16;;;16.07;100.00
22550;BME280;11441;57.164;-2.120;2023-07-16T07:32:20;98439.34;;;16.21;100.00
22550;BME280;11441;57.164;-2.120;2023-07-16T07:34:48;98432.69;;;16.18;100.00
22550;BME280;11441;57.164;-2.120;2023-07-16T07:37:15;98453.91;;;16.25;100.00
22550;BME280;11441;57.164;-2.120;2023-07-16T07:39:42;98465.44;;;16.24;100.00
22550;BME280;11441;57.164;-2.120;2023-07-16T07:42:09;98467.53;;;16.19;100.00
22550;BME280;11441;57.164;-2.120;2023-07-16T07:44:36;98469.63;;;16.28;100.00
22550;BME280;11441;57.164;-2.120;2023-07-16T07:47:04;98486.97;;;16.19;100.00
22550;BME280;11441;57.164;-2.120;2023-07-16T07:49:31;98478.41;;;16.39;100.00
22550;BME280;11441;57.164;-2.120;2023-07-16T07:51:58;98476.72;;;16.42;100.00
22550;BME280;11441;57.164;-2.120;2023-07-16T07:54:25;98487.06;;;16.42;100.00
22550;BME280;11441;57.164;-2.120;2023-07-16T07:56:52;98475.81;;;16.45;100.00
22550;BME280;11441;57.164;-2.120;2023-07-16T07:59:19;98488.38;;;16.50;100.00
22550;BME280;11441;57.164;-2.120;2023-07-16T08:01:46;98483.59;;;16.50;100.00
22550;BME280;11441;57.164;-2.120;2023-07-16T08:04:13;98499.31;;;16.66;100.00
22550;BME280;11441;57.164;-2.120;2023-07-16T08:06:40;98500.19;;;16.76;100.00
22550;BME280;11441;57.164;-2.120;2023-07-16T08:09:06;98506.28;;;16.84;100.00
22550;BME280;11441;57.164;-2.120;2023-07-16T08:11:33;98511.31;;;16.76;100.00
22550;BME280;11441;57.164;-2.120;2023-07-16T08:14:00;98507.59;;;16.92;100.00
22550;BME280;11441;57.164;-2.120;2023-07-16T08:16:27;98506.84;;;16.91;100.00
22550;BME280;11441;57.164;-2.120;2023-07-16T08:19:12;98492.63;;;16.76;100.00
22550;BME280;11441;57.164;-2.120;2023-07-16T08:21:39;98502.25;;;16.98;100.00
22550;BME280;11441;57.164;-2.120;2023-07-16T08:24:06;98497.13;;;16.96;100.00
22550;BME280;11441;57.164;-2.120;2023-07-16T08:26:33;98503.94;;;16.82;100.00
22550;BME280;11441;57.164;-2.120;2023-07-16T08:29:00;98513.16;;;16.92;100.00
22550;BME280;11441;57.164;-2.120;2023-07-16T08:31:27;98510.38;;;16.92;100.00
22550;BME280;11441;57.164;-2.120;2023-07-16T08:33:55;98514.53;;;17.09;100.00
22550;BME280;11441;57.164;-2.120;2023-07-16T08:36:23;98515.44;;;17.06;100.00
22550;BME280;11441;57.164;-2.120;2023-07-16T08:38:50;98523.25;;;17.21;100.00
22550;BME280;11441;57.164;-2.120;2023-07-16T08:41:17;98528.03;;;17.20;100.00
22550;BME280;11441;57.164;-2.120;2023-07-16T08:43:47;98527.53;;;17.12;100.00
22550;BME280;11441;57.164;-2.120;2023-07-16T08:46:17;98534.38;;;17.21;100.00
22550;BME280;11441;57.164;-2.120;2023-07-16T08:49:02;98545.13;;;17.31;100.00
22550;BME280;11441;57.164;-2.120;2023-07-16T08:51:32;98535.38;;;17.27;100.00
22550;BME280;11441;57.164;-2.120;2023-07-16T08:53:59;98547.13;;;17.31;100.00
22550;BME280;11441;57.164;-2.120;2023-07-16T08:56:26;98548.63;;;17.23;100.00
22550;BME280;11441;57.164;-2.120;2023-07-16T08:59:11;98551.03;;;17.33;100.00
22550;BME280;11441;57.164;-2.120;2023-07-16T09:01:38;98562.91;;;17.34;100.00
22550;BME280;11441;57.164;-2.120;2023-07-16T09:04:05;98572.94;;;17.09;100.00
22550;BME280;11441;57.164;-2.120;2023-07-16T09:06:32;98567.19;;;17.04;100.00
22550;BME280;11441;57.164;-2.120;2023-07-16T09:08:59;98576.91;;;17.21;100.00
22550;BME280;11441;57.164;-2.120;2023-07-16T09:11:26;98561.09;;;17.18;100.00
22550;BME280;11441;57.164;-2.120;2023-07-16T09:13:53;98560.25;;;17.30;100.00
22550;BME280;11441;57.164;-2.120;2023-07-16T09:16:20;98557.34;;;17.34;100.00
22550;BME280;11441;57.164;-2.120;2023-07-16T09:18:47;98575.28;;;17.33;100.00
22550;BME280;11441;57.164;-2.120;2023-07-16T09:21:15;98562.78;;;17.38;100.00
22550;BME280;11441;57.164;-2.120;2023-07-16T09:23:42;98571.78;;;17.42;100.00
22550;BME280;11441;57.164;-2.120;2023-07-16T09:26:27;98584.66;;;17.26;100.00
22550;BME280;11441;57.164;-2.120;2023-07-16T09:28:55;98588.91;;;17.18;100.00
22550;BME280;11441;57.164;-2.120;2023-07-16T09:31:23;98584.47;;;17.43;100.00
22550;BME280;11441;57.164;-2.120;2023-07-16T09:33:51;98585.19;;;17.56;100.00
22550;BME280;11441;57.164;-2.120;2023-07-16T09:36:35;98602.41;;;17.42;100.00
22550;BME280;11441;57.164;-2.120;2023-07-16T09:39:02;98598.75;;;17.76;100.00
22550;BME280;11441;57.164;-2.120;2023-07-16T09:41:29;98603.47;;;17.88;100.00
22550;BME280;11441;57.164;-2.120;2023-07-16T09:43:56;98601.78;;;18.13;100.00
22550;BME280;11441;57.164;-2.120;2023-07-16T09:46:23;98604.63;;;18.32;100.00
22550;BME280;11441;57.164;-2.120;2023-07-16T09:48:50;98604.59;;;18.22;100.00
22550;BME280;11441;57.164;-2.120;2023-07-16T09:51:18;98606.19;;;18.33;100.00
22550;BME280;11441;57.164;-2.120;2023-07-16T09:53:46;98609.06;;;18.70;100.00
22550;BME280;11441;57.164;-2.120;2023-07-16T09:56:13;98623.78;;;18.70;100.00
22550;BME280;11441;57.164;-2.120;2023-07-16T09:58:41;98620.22;;;18.60;100.00
22550;BME280;11441;57.164;-2.120;2023-07-16T10:01:09;98625.19;;;18.65;100.00
22550;BME280;11441;57.164;-2.120;2023-07-16T10:03:55;98634.19;;;18.29;100.00
22550;BME280;11441;57.164;-2.120;2023-07-16T10:06:22;98637.19;;;18.44;100.00
22550;BME280;11441;57.164;-2.120;2023-07-16T10:08:49;98639.13;;;18.75;100.00
22550;BME280;11441;57.164;-2.120;2023-07-16T10:11:18;98635.97;;;18.54;100.00
22550;BME280;11441;57.164;-2.120;2023-07-16T10:13:53;98641.94;;;18.34;100.00
22550;BME280;11441;57.164;-2.120;2023-07-16T10:16:22;98633.19;;;18.14;100.00
22550;BME280;11441;57.164;-2.120;2023-07-16T10:18:51;98646.25;;;18.26;100.00
22550;BME280;11441;57.164;-2.120;2023-07-16T10:21:24;98640.25;;;18.37;100.00
22550;BME280;11441;57.164;-2.120;2023-07-16T10:23:58;98647.78;;;18.58;100.00
22550;BME280;11441;57.164;-2.120;2023-07-16T10:26:29;98653.66;;;18.60;100.00
22550;BME280;11441;57.164;-2.120;2023-07-16T10:29:15;98662.16;;;18.97;100.00
22550;BME280;11441;57.164;-2.120;2023-07-16T10:31:42;98671.19;;;19.11;100.00
22550;BME280;11441;57.164;-2.120;2023-07-16T10:34:09;98676.00;;;19.38;100.00
22550;BME280;11441;57.164;-2.120;2023-07-16T10:36:39;98685.16;;;19.38;100.00
22550;BME280;11441;57.164;-2.120;2023-07-16T10:39:07;98679.56;;;19.66;100.00
22550;BME280;11441;57.164;-2.120;2023-07-16T10:41:34;98684.53;;;19.71;100.00
22550;BME280;11441;57.164;-2.120;2023-07-16T10:44:01;98696.78;;;19.46;100.00
22550;BME280;11441;57.164;-2.120;2023-07-16T10:46:28;98699.25;;;19.35;100.00
22550;BME280;11441;57.164;-2.120;2023-07-16T10:48:57;98708.28;;;18.89;100.00
22550;BME280;11441;57.164;-2.120;2023-07-16T10:51:27;98717.16;;;18.97;100.00
22550;BME280;11441;57.164;-2.120;2023-07-16T10:53:55;98720.09;;;18.93;100.00
22550;BME280;11441;57.164;-2.120;2023-07-16T10:56:24;98718.78;;;18.76;100.00
22550;BME280;11441;57.164;-2.120;2023-07-16T10:58:51;98725.47;;;18.88;100.00
22550;BME280;11441;57.164;-2.120;2023-07-16T11:01:18;98678.91;;;18.66;100.00
22550;BME280;11441;57.164;-2.120;2023-07-16T11:03:45;98687.88;;;18.30;100.00
22550;BME280;11441;57.164;-2.120;2023-07-16T11:06:12;98654.41;;;18.20;100.00
22550;BME280;11441;57.164;-2.120;2023-07-16T11:08:39;98668.31;;;17.89;100.00
22550;BME280;11441;57.164;-2.120;2023-07-16T11:11:06;98672.97;;;17.92;100.00
22550;BME280;11441;57.164;-2.120;2023-07-16T11:13:33;98679.81;;;17.78;100.00
22550;BME280;11441;57.164;-2.120;2023-07-16T11:16:10;98684.09;;;17.70;100.00
22550;BME280;11441;57.164;-2.120;2023-07-16T11:18:37;98702.66;;;17.73;100.00
22550;BME280;11441;57.164;-2.120;2023-07-16T11:21:04;98708.25;;;17.95;100.00
22550;BME280;11441;57.164;-2.120;2023-07-16T11:23:35;98708.97;;;18.08;100.00
22550;BME280;11441;57.164;-2.120;2023-07-16T11:26:02;98702.81;;;18.14;100.00
22550;BME280;11441;57.164;-2.120;2023-07-16T11:28:40;98703.03;;;18.28;100.00
22550;BME280;11441;57.164;-2.120;2023-07-16T11:31:13;98705.97;;;18.56;100.00
22550;BME280;11441;57.164;-2.120;2023-07-16T11:34:00;98712.47;;;18.84;100.00
22550;BME280;11441;57.164;-2.120;2023-07-16T11:36:28;98726.63;;;18.99;100.00
22550;BME280;11441;57.164;-2.120;2023-07-16T11:38:55;98725.09;;;19.08;100.00
22550;BME280;11441;57.164;-2.120;2023-07-16T11:41:22;98758.56;;;19.08;100.00
22550;BME280;11441;57.164;-2.120;2023-07-16T11:43:50;98755.34;;;18.78;100.00
22550;BME280;11441;57.164;-2.120;2023-07-16T11:46:17;98763.03;;;18.74;100.00
22550;BME280;11441;57.164;-2.120;2023-07-16T11:48:45;98757.56;;;18.83;100.00
22550;BME280;11441;57.164;-2.120;2023-07-16T11:51:11;98763.50;;;19.03;100.00
22550;BME280;11441;57.164;-2.120;2023-07-16T11:53:38;98774.94;;;18.96;100.00
22550;BME280;11441;57.164;-2.120;2023-07-16T11:56:06;98780.94;;;18.86;100.00
22550;BME280;11441;57.164;-2.120;2023-07-16T11:58:33;98780.84;;;18.98;100.00
22550;BME280;11441;57.164;-2.120;2023-07-16T12:00:59;98795.66;;;18.86;100.00
22550;BME280;11441;57.164;-2.120;2023-07-16T12:03:29;98805.59;;;18.87;100.00
22550;BME280;11441;57.164;-2.120;2023-07-16T12:05:56;98802.03;;;18.87;100.00
22550;BME280;11441;57.164;-2.120;2023-07-16T12:08:23;98806.88;;;18.73;100.00
22550;BME280;11441;57.164;-2.120;2023-07-16T12:10:50;98821.63;;;18.30;100.00
22550;BME280;11441;57.164;-2.120;2023-07-16T12:13:17;98789.09;;;17.57;100.00
22550;BME280;11441;57.164;-2.120;2023-07-16T12:15:44;98753.63;;;17.83;100.00
22550;BME280;11441;57.164;-2.120;2023-07-16T12:18:30;98773.56;;;17.81;100.00
22550;BME280;11441;57.164;-2.120;2023-07-16T12:20:57;98777.13;;;17.82;100.00
22550;BME280;11441;57.164;-2.120;2023-07-16T12:23:24;98781.50;;;17.70;100.00
22550;BME280;11441;57.164;-2.120;2023-07-16T12:25:51;98779.69;;;17.89;100.00
22550;BME280;11441;57.164;-2.120;2023-07-16T12:28:18;98794.84;;;17.75;100.00
22550;BME280;11441;57.164;-2.120;2023-07-16T12:30:45;98779.31;;;18.00;100.00
22550;BME280;11441;57.164;-2.120;2023-07-16T12:33:12;98783.97;;;18.25;100.00
22550;BME280;11441;57.164;-2.120;2023-07-16T12:35:39;98776.81;;;18.68;100.00
22550;BME280;11441;57.164;-2.120;2023-07-16T12:38:05;98785.94;;;18.91;100.00
22550;BME280;11441;57.164;-2.120;2023-07-16T12:40:32;98821.44;;;18.77;100.00
22550;BME280;11441;57.164;-2.120;2023-07-16T12:43:06;98812.34;;;19.08;100.00
22550;BME280;11441;57.164;-2.120;2023-07-16T12:45:34;98844.66;;;18.96;100.00
22550;BME280;11441;57.164;-2.120;2023-07-16T12:48:01;98847.59;;;18.93;100.00
22550;BME280;11441;57.164;-2.120;2023-07-16T12:50:28;98848.75;;;19.05;100.00